Taholah, Washington
Current Conditions -  °F | °C
As of 9:53 AM on Wednesday 28 Jan 2015 (Local Time) from KHQM Reporting Station
Haze Haze  
Wind Chill: 37°   Ceiling: 1000
Heat Index: 42°   Visibility: 5mi
Dew Point: 42°   Wind: 9mph
Humidity: 100%   Direction: 80°E
Pressure: 30.36"   Gusts: NA
Location:  47.35°N, 124.3°W
Report Text: KHQM 281753Z AUTO 08008KT 5SM BR OVC010 06/06 A3036 RMK AO2 SLP283 I6000 T00560056 10056 20017 51010 $
Loading
Personal Weather Stations






























Interactive Weather Map New forecast layout! Learn more

10-Day Weather Forecast

Advertisements
Track Severe Weather on mobile